sensor_id;sensor_type;location;lat;lon;timestamp;temperature;humidity
38265;DHT22;24062;47.480;8.768;2023-03-05T00:01:52;2.90;58.90
38265;DHT22;24062;47.480;8.768;2023-03-05T00:04:19;2.90;59.00
38265;DHT22;24062;47.480;8.768;2023-03-05T00:06:48;2.90;59.10
38265;DHT22;24062;47.480;8.768;2023-03-05T00:09:15;3.00;59.10
38265;DHT22;24062;47.480;8.768;2023-03-05T00:11:42;3.10;59.00
38265;DHT22;24062;47.480;8.768;2023-03-05T00:14:11;3.10;59.10
38265;DHT22;24062;47.480;8.768;2023-03-05T00:16:38;3.00;59.00
38265;DHT22;24062;47.480;8.768;2023-03-05T00:19:06;3.10;59.40
38265;DHT22;24062;47.480;8.768;2023-03-05T00:21:35;3.10;59.20
38265;DHT22;24062;47.480;8.768;2023-03-05T00:24:06;3.10;59.20
38265;DHT22;24062;47.480;8.768;2023-03-05T00:26:35;3.20;59.30
38265;DHT22;24062;47.480;8.768;2023-03-05T00:29:04;3.20;59.40
38265;DHT22;24062;47.480;8.768;2023-03-05T00:31:33;3.20;59.40
38265;DHT22;24062;47.480;8.768;2023-03-05T00:34:03;3.20;59.50
38265;DHT22;24062;47.480;8.768;2023-03-05T00:36:30;3.10;59.50
38265;DHT22;24062;47.480;8.768;2023-03-05T00:38:57;3.10;59.50
38265;DHT22;24062;47.480;8.768;2023-03-05T00:41:24;3.20;59.60
38265;DHT22;24062;47.480;8.768;2023-03-05T00:43:51;3.20;59.60
38265;DHT22;24062;47.480;8.768;2023-03-05T00:46:18;3.20;59.50
38265;DHT22;24062;47.480;8.768;2023-03-05T00:48:46;3.20;59.30
38265;DHT22;24062;47.480;8.768;2023-03-05T00:51:13;3.20;59.40
38265;DHT22;24062;47.480;8.768;2023-03-05T00:53:40;3.10;59.30
38265;DHT22;24062;47.480;8.768;2023-03-05T00:56:07;3.10;59.60
38265;DHT22;24062;47.480;8.768;2023-03-05T00:58:34;3.10;59.60
38265;DHT22;24062;47.480;8.768;2023-03-05T01:01:02;3.00;59.70
38265;DHT22;24062;47.480;8.768;2023-03-05T01:03:29;3.00;59.60
38265;DHT22;24062;47.480;8.768;2023-03-05T01:05:59;3.10;59.80
38265;DHT22;24062;47.480;8.768;2023-03-05T01:08:26;3.20;60.10
38265;DHT22;24062;47.480;8.768;2023-03-05T01:10:53;3.20;59.90
38265;DHT22;24062;47.480;8.768;2023-03-05T01:13:20;3.20;60.00
38265;DHT22;24062;47.480;8.768;2023-03-05T01:15:48;3.10;59.80
38265;DHT22;24062;47.480;8.768;2023-03-05T01:18:15;3.10;59.90
38265;DHT22;24062;47.480;8.768;2023-03-05T01:20:43;3.20;60.20
38265;DHT22;24062;47.480;8.768;2023-03-05T01:23:11;3.30;60.20
38265;DHT22;24062;47.480;8.768;2023-03-05T01:25:38;3.30;60.00
38265;DHT22;24062;47.480;8.768;2023-03-05T01:28:05;3.30;60.00
38265;DHT22;24062;47.480;8.768;2023-03-05T01:30:32;3.30;60.10
38265;DHT22;24062;47.480;8.768;2023-03-05T01:32:59;3.30;60.10
38265;DHT22;24062;47.480;8.768;2023-03-05T01:35:28;3.30;59.90
38265;DHT22;24062;47.480;8.768;2023-03-05T01:37:55;3.20;60.10
38265;DHT22;24062;47.480;8.768;2023-03-05T01:40:27;3.30;60.20
38265;DHT22;24062;47.480;8.768;2023-03-05T01:42:58;3.20;60.10
38265;DHT22;24062;47.480;8.768;2023-03-05T01:45:26;3.20;60.30
38265;DHT22;24062;47.480;8.768;2023-03-05T01:47:53;3.20;60.40
38265;DHT22;24062;47.480;8.768;2023-03-05T01:50:22;3.20;60.50
38265;DHT22;24062;47.480;8.768;2023-03-05T01:52:53;3.20;60.40
38265;DHT22;24062;47.480;8.768;2023-03-05T01:55:24;3.20;60.60
38265;DHT22;24062;47.480;8.768;2023-03-05T01:57:54;3.10;60.70
38265;DHT22;24062;47.480;8.768;2023-03-05T02:00:25;3.10;60.70
38265;DHT22;24062;47.480;8.768;2023-03-05T02:02:53;3.10;60.80
38265;DHT22;24062;47.480;8.768;2023-03-05T02:05:23;3.20;60.90
38265;DHT22;24062;47.480;8.768;2023-03-05T02:07:53;3.20;61.00
38265;DHT22;24062;47.480;8.768;2023-03-05T02:10:22;3.20;60.90
38265;DHT22;24062;47.480;8.768;2023-03-05T02:12:52;3.20;60.80
38265;DHT22;24062;47.480;8.768;2023-03-05T02:15:20;3.20;60.80
38265;DHT22;24062;47.480;8.768;2023-03-05T02:17:47;3.20;60.80
38265;DHT22;24062;47.480;8.768;2023-03-05T02:20:17;3.20;60.80
38265;DHT22;24062;47.480;8.768;2023-03-05T02:22:47;3.10;60.80
38265;DHT22;24062;47.480;8.768;2023-03-05T02:25:16;3.10;61.00
38265;DHT22;24062;47.480;8.768;2023-03-05T02:27:50;3.10;61.10
38265;DHT22;24062;47.480;8.768;2023-03-05T02:30:18;3.10;61.30
38265;DHT22;24062;47.480;8.768;2023-03-05T02:32:45;3.00;61.30
38265;DHT22;24062;47.480;8.768;2023-03-05T02:35:12;3.00;61.10
38265;DHT22;24062;47.480;8.768;2023-03-05T02:37:39;3.00;61.30
38265;DHT22;24062;47.480;8.768;2023-03-05T02:40:10;3.00;61.60
38265;DHT22;24062;47.480;8.768;2023-03-05T02:42:37;3.10;61.60
38265;DHT22;24062;47.480;8.768;2023-03-05T02:45:05;3.10;61.40
38265;DHT22;24062;47.480;8.768;2023-03-05T02:47:32;3.10;61.60
38265;DHT22;24062;47.480;8.768;2023-03-05T02:49:59;3.10;61.80
38265;DHT22;24062;47.480;8.768;2023-03-05T02:52:27;3.10;62.50
38265;DHT22;24062;47.480;8.768;2023-03-05T02:54:55;3.10;61.80
38265;DHT22;24062;47.480;8.768;2023-03-05T02:57:23;3.10;62.10
38265;DHT22;24062;47.480;8.768;2023-03-05T02:59:50;3.10;61.80
38265;DHT22;24062;47.480;8.768;2023-03-05T03:02:17;3.20;62.10
38265;DHT22;24062;47.480;8.768;2023-03-05T03:04:44;3.30;62.20
38265;DHT22;24062;47.480;8.768;2023-03-05T03:07:12;3.20;61.70
38265;DHT22;24062;47.480;8.768;2023-03-05T03:09:39;3.20;61.90
38265;DHT22;24062;47.480;8.768;2023-03-05T03:12:08;3.30;62.10
38265;DHT22;24062;47.480;8.768;2023-03-05T03:14:38;3.40;62.20
38265;DHT22;24062;47.480;8.768;2023-03-05T03:17:06;3.50;62.30
38265;DHT22;24062;47.480;8.768;2023-03-05T03:19:34;3.50;61.90
38265;DHT22;24062;47.480;8.768;2023-03-05T03:22:00;3.60;61.80
38265;DHT22;24062;47.480;8.768;2023-03-05T03:24:29;3.60;61.60
38265;DHT22;24062;47.480;8.768;2023-03-05T03:26:56;3.60;61.80
38265;DHT22;24062;47.480;8.768;2023-03-05T03:29:23;3.60;61.50
38265;DHT22;24062;47.480;8.768;2023-03-05T03:31:52;3.50;61.30
38265;DHT22;24062;47.480;8.768;2023-03-05T03:34:19;3.40;61.10
38265;DHT22;24062;47.480;8.768;2023-03-05T03:36:48;3.30;60.80
38265;DHT22;24062;47.480;8.768;2023-03-05T03:39:16;3.10;61.10
38265;DHT22;24062;47.480;8.768;2023-03-05T03:41:46;3.10;61.60
38265;DHT22;24062;47.480;8.768;2023-03-05T03:44:13;3.00;61.70
38265;DHT22;24062;47.480;8.768;2023-03-05T03:46:43;3.00;61.80
38265;DHT22;24062;47.480;8.768;2023-03-05T03:49:16;3.10;62.40
38265;DHT22;24062;47.480;8.768;2023-03-05T03:51:43;3.20;62.70
38265;DHT22;24062;47.480;8.768;2023-03-05T03:54:10;3.20;62.30
38265;DHT22;24062;47.480;8.768;2023-03-05T03:56:37;3.20;62.00
38265;DHT22;24062;47.480;8.768;2023-03-05T03:59:04;3.20;62.20
38265;DHT22;24062;47.480;8.768;2023-03-05T04:01:31;3.10;62.30
38265;DHT22;24062;47.480;8.768;2023-03-05T04:03:58;3.10;62.50
38265;DHT22;24062;47.480;8.768;2023-03-05T04:06:27;3.10;62.70
38265;DHT22;24062;47.480;8.768;2023-03-05T04:08:53;3.10;62.60
38265;DHT22;24062;47.480;8.768;2023-03-05T04:11:20;3.10;62.60
38265;DHT22;24062;47.480;8.768;2023-03-05T04:13:48;3.10;62.60
38265;DHT22;24062;47.480;8.768;2023-03-05T04:16:15;3.00;62.60
38265;DHT22;24062;47.480;8.768;2023-03-05T04:18:42;3.00;62.80
38265;DHT22;24062;47.480;8.768;2023-03-05T04:21:09;2.90;62.70
38265;DHT22;24062;47.480;8.768;2023-03-05T04:23:37;2.90;62.90
38265;DHT22;24062;47.480;8.768;2023-03-05T04:26:05;2.90;63.00
38265;DHT22;24062;47.480;8.768;2023-03-05T04:28:32;3.00;63.10
38265;DHT22;24062;47.480;8.768;2023-03-05T04:30:59;2.90;63.00
38265;DHT22;24062;47.480;8.768;2023-03-05T04:33:26;2.90;63.20
38265;DHT22;24062;47.480;8.768;2023-03-05T04:35:53;2.90;63.20
38265;DHT22;24062;47.480;8.768;2023-03-05T04:38:20;2.90;63.20
38265;DHT22;24062;47.480;8.768;2023-03-05T04:40:49;2.80;63.20
38265;DHT22;24062;47.480;8.768;2023-03-05T04:43:16;2.90;63.50
38265;DHT22;24062;47.480;8.768;2023-03-05T04:45:43;2.90;63.50
38265;DHT22;24062;47.480;8.768;2023-03-05T04:48:11;2.90;63.70
38265;DHT22;24062;47.480;8.768;2023-03-05T04:50:38;2.80;63.70
38265;DHT22;24062;47.480;8.768;2023-03-05T04:53:05;2.80;63.80
38265;DHT22;24062;47.480;8.768;2023-03-05T04:55:33;2.80;63.90
38265;DHT22;24062;47.480;8.768;2023-03-05T04:58:01;2.80;63.70
38265;DHT22;24062;47.480;8.768;2023-03-05T05:00:28;2.80;63.80
38265;DHT22;24062;47.480;8.768;2023-03-05T05:02:55;2.80;64.00
38265;DHT22;24062;47.480;8.768;2023-03-05T05:05:24;2.90;64.20
38265;DHT22;24062;47.480;8.768;2023-03-05T05:07:53;3.00;64.30
38265;DHT22;24062;47.480;8.768;2023-03-05T05:10:21;3.00;64.10
38265;DHT22;24062;47.480;8.768;2023-03-05T05:12:48;3.00;64.10
38265;DHT22;24062;47.480;8.768;2023-03-05T05:15:16;3.00;63.90
38265;DHT22;24062;47.480;8.768;2023-03-05T05:17:44;3.00;63.90
38265;DHT22;24062;47.480;8.768;2023-03-05T05:20:14;3.00;64.10
38265;DHT22;24062;47.480;8.768;2023-03-05T05:22:41;3.00;64.00
38265;DHT22;24062;47.480;8.768;2023-03-05T05:25:09;3.00;63.90
38265;DHT22;24062;47.480;8.768;2023-03-05T05:27:37;3.00;63.90
38265;DHT22;24062;47.480;8.768;2023-03-05T05:30:05;2.90;63.90
38265;DHT22;24062;47.480;8.768;2023-03-05T05:32:33;2.90;64.10
38265;DHT22;24062;47.480;8.768;2023-03-05T05:35:01;2.90;64.30
38265;DHT22;24062;47.480;8.768;2023-03-05T05:37:28;3.00;64.20
38265;DHT22;24062;47.480;8.768;2023-03-05T05:39:55;2.90;64.20
38265;DHT22;24062;47.480;8.768;2023-03-05T05:42:23;3.00;64.40
38265;DHT22;24062;47.480;8.768;2023-03-05T05:44:51;2.90;64.40
38265;DHT22;24062;47.480;8.768;2023-03-05T05:47:18;3.00;64.50
38265;DHT22;24062;47.480;8.768;2023-03-05T05:49:46;3.00;64.60
38265;DHT22;24062;47.480;8.768;2023-03-05T05:52:13;3.00;64.40
38265;DHT22;24062;47.480;8.768;2023-03-05T05:54:40;3.00;64.60
38265;DHT22;24062;47.480;8.768;2023-03-05T05:57:07;3.00;64.90
38265;DHT22;24062;47.480;8.768;2023-03-05T05:59:34;3.00;64.90
38265;DHT22;24062;47.480;8.768;2023-03-05T06:02:02;3.10;65.10
38265;DHT22;24062;47.480;8.768;2023-03-05T06:04:30;3.10;65.00
38265;DHT22;24062;47.480;8.768;2023-03-05T06:06:59;3.20;64.80
38265;DHT22;24062;47.480;8.768;2023-03-05T06:09:26;3.20;64.80
38265;DHT22;24062;47.480;8.768;2023-03-05T06:11:53;3.20;64.90
38265;DHT22;24062;47.480;8.768;2023-03-05T06:14:20;3.20;64.40
38265;DHT22;24062;47.480;8.768;2023-03-05T06:16:47;3.20;64.30
38265;DHT22;24062;47.480;8.768;2023-03-05T06:19:15;3.10;64.30
38265;DHT22;24062;47.480;8.768;2023-03-05T06:21:42;3.20;65.20
38265;DHT22;24062;47.480;8.768;2023-03-05T06:24:11;3.30;65.40
38265;DHT22;24062;47.480;8.768;2023-03-05T06:26:38;3.30;65.10
38265;DHT22;24062;47.480;8.768;2023-03-05T06:29:05;3.30;64.90
38265;DHT22;24062;47.480;8.768;2023-03-05T06:31:32;3.30;64.80
38265;DHT22;24062;47.480;8.768;2023-03-05T06:33:59;3.30;65.00
38265;DHT22;24062;47.480;8.768;2023-03-05T06:36:27;3.40;65.10
38265;DHT22;24062;47.480;8.768;2023-03-05T06:38:55;3.40;65.10
38265;DHT22;24062;47.480;8.768;2023-03-05T06:41:26;3.30;65.00
38265;DHT22;24062;47.480;8.768;2023-03-05T06:43:53;3.30;64.90
38265;DHT22;24062;47.480;8.768;2023-03-05T06:46:22;3.30;65.10
38265;DHT22;24062;47.480;8.768;2023-03-05T06:48:50;3.40;65.70
38265;DHT22;24062;47.480;8.768;2023-03-05T06:51:18;3.40;65.20
38265;DHT22;24062;47.480;8.768;2023-03-05T06:53:46;3.40;65.00
38265;DHT22;24062;47.480;8.768;2023-03-05T06:56:13;3.40;65.20
38265;DHT22;24062;47.480;8.768;2023-03-05T06:58:44;3.40;65.30
38265;DHT22;24062;47.480;8.768;2023-03-05T07:01:12;3.40;65.40
38265;DHT22;24062;47.480;8.768;2023-03-05T07:03:39;3.40;65.50
38265;DHT22;24062;47.480;8.768;2023-03-05T07:06:08;3.50;65.80
38265;DHT22;24062;47.480;8.768;2023-03-05T07:08:35;3.40;65.40
38265;DHT22;24062;47.480;8.768;2023-03-05T07:11:03;3.50;65.90
38265;DHT22;24062;47.480;8.768;2023-03-05T07:13:34;3.60;65.70
38265;DHT22;24062;47.480;8.768;2023-03-05T07:16:05;3.60;65.90
38265;DHT22;24062;47.480;8.768;2023-03-05T07:18:33;3.70;66.20
38265;DHT22;24062;47.480;8.768;2023-03-05T07:21:01;3.80;66.00
38265;DHT22;24062;47.480;8.768;2023-03-05T07:23:29;3.90;66.10
38265;DHT22;24062;47.480;8.768;2023-03-05T07:25:56;4.00;65.90
38265;DHT22;24062;47.480;8.768;2023-03-05T07:28:23;4.00;65.70
38265;DHT22;24062;47.480;8.768;2023-03-05T07:30:56;4.00;65.70
38265;DHT22;24062;47.480;8.768;2023-03-05T07:33:25;4.00;65.40
38265;DHT22;24062;47.480;8.768;2023-03-05T07:35:53;4.00;65.00
38265;DHT22;24062;47.480;8.768;2023-03-05T07:38:20;4.00;65.30
38265;DHT22;24062;47.480;8.768;2023-03-05T07:40:48;4.00;65.70
38265;DHT22;24062;47.480;8.768;2023-03-05T07:43:15;4.10;65.80
38265;DHT22;24062;47.480;8.768;2023-03-05T07:45:43;4.10;65.50
38265;DHT22;24062;47.480;8.768;2023-03-05T07:48:12;4.10;65.00
38265;DHT22;24062;47.480;8.768;2023-03-05T07:50:41;4.10;65.30
38265;DHT22;24062;47.480;8.768;2023-03-05T07:53:08;4.10;65.40
38265;DHT22;24062;47.480;8.768;2023-03-05T07:55:41;4.10;65.70
38265;DHT22;24062;47.480;8.768;2023-03-05T07:58:08;4.20;65.60
38265;DHT22;24062;47.480;8.768;2023-03-05T08:00:35;4.30;65.60
38265;DHT22;24062;47.480;8.768;2023-03-05T08:03:02;4.30;65.40
38265;DHT22;24062;47.480;8.768;2023-03-05T08:05:29;4.40;65.40
38265;DHT22;24062;47.480;8.768;2023-03-05T08:07:57;4.40;65.60
38265;DHT22;24062;47.480;8.768;2023-03-05T08:10:24;4.50;65.30
38265;DHT22;24062;47.480;8.768;2023-03-05T08:12:51;4.60;65.40
38265;DHT22;24062;47.480;8.768;2023-03-05T08:15:18;4.70;65.30
38265;DHT22;24062;47.480;8.768;2023-03-05T08:17:45;4.90;65.30
38265;DHT22;24062;47.480;8.768;2023-03-05T08:20:12;4.90;64.60
38265;DHT22;24062;47.480;8.768;2023-03-05T08:22:39;5.00;64.00
38265;DHT22;24062;47.480;8.768;2023-03-05T08:25:08;4.90;64.00
38265;DHT22;24062;47.480;8.768;2023-03-05T08:27:37;5.00;64.00
38265;DHT22;24062;47.480;8.768;2023-03-05T08:30:05;5.00;64.30
38265;DHT22;24062;47.480;8.768;2023-03-05T08:32:32;5.00;63.90
38265;DHT22;24062;47.480;8.768;2023-03-05T08:34:59;5.00;63.50
38265;DHT22;24062;47.480;8.768;2023-03-05T08:37:27;5.10;64.10
38265;DHT22;24062;47.480;8.768;2023-03-05T08:39:54;5.20;63.70
38265;DHT22;24062;47.480;8.768;2023-03-05T08:42:23;5.20;64.00
38265;DHT22;24062;47.480;8.768;2023-03-05T08:44:50;5.30;64.10
38265;DHT22;24062;47.480;8.768;2023-03-05T08:47:17;5.30;62.40
38265;DHT22;24062;47.480;8.768;2023-03-05T08:49:45;5.40;63.90
38265;DHT22;24062;47.480;8.768;2023-03-05T08:52:12;5.60;63.90
38265;DHT22;24062;47.480;8.768;2023-03-05T08:54:39;5.70;63.90
38265;DHT22;24062;47.480;8.768;2023-03-05T08:57:06;5.80;62.20
38265;DHT22;24062;47.480;8.768;2023-03-05T08:59:34;5.70;62.20
38265;DHT22;24062;47.480;8.768;2023-03-05T09:02:01;5.70;62.80
38265;DHT22;24062;47.480;8.768;2023-03-05T09:04:28;5.90;63.50
38265;DHT22;24062;47.480;8.768;2023-03-05T09:06:56;6.00;62.70
38265;DHT22;24062;47.480;8.768;2023-03-05T09:09:23;6.00;62.00
38265;DHT22;24062;47.480;8.768;2023-03-05T09:11:50;6.00;61.60
38265;DHT22;24062;47.480;8.768;2023-03-05T09:14:17;5.90;60.90
38265;DHT22;24062;47.480;8.768;2023-03-05T09:16:45;5.90;61.20
38265;DHT22;24062;47.480;8.768;2023-03-05T09:19:12;6.00;62.20
38265;DHT22;24062;47.480;8.768;2023-03-05T09:21:39;5.90;60.20
38265;DHT22;24062;47.480;8.768;2023-03-05T09:24:07;5.90;62.10
38265;DHT22;24062;47.480;8.768;2023-03-05T09:26:34;6.20;62.60
38265;DHT22;24062;47.480;8.768;2023-03-05T09:29:00;6.40;62.00
38265;DHT22;24062;47.480;8.768;2023-03-05T09:31:28;6.60;61.70
38265;DHT22;24062;47.480;8.768;2023-03-05T09:33:56;6.70;61.30
38265;DHT22;24062;47.480;8.768;2023-03-05T09:36:25;6.80;60.70
38265;DHT22;24062;47.480;8.768;2023-03-05T09:38:52;6.80;60.00
38265;DHT22;24062;47.480;8.768;2023-03-05T09:41:27;6.80;59.70
38265;DHT22;24062;47.480;8.768;2023-03-05T09:44:02;6.90;60.80
38265;DHT22;24062;47.480;8.768;2023-03-05T09:46:36;7.10;61.00
38265;DHT22;24062;47.480;8.768;2023-03-05T09:49:15;7.40;61.00
38265;DHT22;24062;47.480;8.768;2023-03-05T09:51:45;7.40;59.80
38265;DHT22;24062;47.480;8.768;2023-03-05T09:54:18;7.30;59.00
38265;DHT22;24062;47.480;8.768;2023-03-05T09:56:48;7.30;59.00
38265;DHT22;24062;47.480;8.768;2023-03-05T09:59:22;7.30;58.90
38265;DHT22;24062;47.480;8.768;2023-03-05T10:01:52;7.40;59.30
38265;DHT22;24062;47.480;8.768;2023-03-05T10:04:24;7.40;58.80
38265;DHT22;24062;47.480;8.768;2023-03-05T10:06:54;7.40;59.20
38265;DHT22;24062;47.480;8.768;2023-03-05T10:09:36;7.50;58.40
38265;DHT22;24062;47.480;8.768;2023-03-05T10:12:14;7.50;59.20
38265;DHT22;24062;47.480;8.768;2023-03-05T10:14:44;7.50;58.60
38265;DHT22;24062;47.480;8.768;2023-03-05T10:17:44;7.40;58.00
38265;DHT22;24062;47.480;8.768;2023-03-05T10:20:24;7.10;57.60
38265;DHT22;24062;47.480;8.768;2023-03-05T10:23:10;7.00;58.60
38265;DHT22;24062;47.480;8.768;2023-03-05T10:25:51;7.00;57.80
38265;DHT22;24062;47.480;8.768;2023-03-05T10:28:23;6.80;58.00
38265;DHT22;24062;47.480;8.768;2023-03-05T10:31:14;6.80;58.60
38265;DHT22;24062;47.480;8.768;2023-03-05T10:33:54;7.00;58.50
38265;DHT22;24062;47.480;8.768;2023-03-05T10:36:45;7.00;58.30
38265;DHT22;24062;47.480;8.768;2023-03-05T10:39:37;7.20;59.50
38265;DHT22;24062;47.480;8.768;2023-03-05T10:42:15;7.60;59.30
38265;DHT22;24062;47.480;8.768;2023-03-05T10:44:47;7.70;58.80
38265;DHT22;24062;47.480;8.768;2023-03-05T10:47:21;7.70;57.60
38265;DHT22;24062;47.480;8.768;2023-03-05T10:49:51;7.50;57.50
38265;DHT22;24062;47.480;8.768;2023-03-05T10:52:23;7.60;58.40
38265;DHT22;24062;47.480;8.768;2023-03-05T10:54:51;7.70;58.00
38265;DHT22;24062;47.480;8.768;2023-03-05T10:57:19;7.80;58.50
38265;DHT22;24062;47.480;8.768;2023-03-05T10:59:49;8.10;58.70
38265;DHT22;24062;47.480;8.768;2023-03-05T11:02:19;8.30;58.70
38265;DHT22;24062;47.480;8.768;2023-03-05T11:04:46;8.60;58.50
38265;DHT22;24062;47.480;8.768;2023-03-05T11:07:33;8.90;58.10
38265;DHT22;24062;47.480;8.768;2023-03-05T11:10:05;9.00;58.00
38265;DHT22;24062;47.480;8.768;2023-03-05T11:12:33;9.20;57.90
38265;DHT22;24062;47.480;8.768;2023-03-05T11:15:23;9.30;57.00
38265;DHT22;24062;47.480;8.768;2023-03-05T11:18:19;9.40;57.80
38265;DHT22;24062;47.480;8.768;2023-03-05T11:20:49;9.70;55.70
38265;DHT22;24062;47.480;8.768;2023-03-05T11:23:19;9.60;55.20
38265;DHT22;24062;47.480;8.768;2023-03-05T11:25:59;9.50;55.90
38265;DHT22;24062;47.480;8.768;2023-03-05T11:28:30;9.60;55.40
38265;DHT22;24062;47.480;8.768;2023-03-05T11:31:00;9.60;55.10
38265;DHT22;24062;47.480;8.768;2023-03-05T11:33:29;9.90;56.20
38265;DHT22;24062;47.480;8.768;2023-03-05T11:36:20;10.20;54.30
38265;DHT22;24062;47.480;8.768;2023-03-05T11:38:53;10.40;53.20
38265;DHT22;24062;47.480;8.768;2023-03-05T11:41:28;10.60;53.50
38265;DHT22;24062;47.480;8.768;2023-03-05T11:43:58;10.80;53.30
38265;DHT22;24062;47.480;8.768;2023-03-05T11:46:29;11.10;52.90
38265;DHT22;24062;47.480;8.768;2023-03-05T11:49:01;11.40;52.70
38265;DHT22;24062;47.480;8.768;2023-03-05T11:51:33;11.50;49.90
38265;DHT22;24062;47.480;8.768;2023-03-05T11:54:09;11.40;51.40
38265;DHT22;24062;47.480;8.768;2023-03-05T11:56:38;11.60;50.50
38265;DHT22;24062;47.480;8.768;2023-03-05T11:59:13;11.60;48.60
38265;DHT22;24062;47.480;8.768;2023-03-05T12:01:44;11.70;49.40
38265;DHT22;24062;47.480;8.768;2023-03-05T12:04:12;12.00;48.70
38265;DHT22;24062;47.480;8.768;2023-03-05T12:06:43;12.10;47.50
38265;DHT22;24062;47.480;8.768;2023-03-05T12:09:17;12.00;46.90
38265;DHT22;24062;47.480;8.768;2023-03-05T12:11:50;12.00;48.10
38265;DHT22;24062;47.480;8.768;2023-03-05T12:14:23;12.30;49.10
38265;DHT22;24062;47.480;8.768;2023-03-05T12:16:54;12.60;48.30
38265;DHT22;24062;47.480;8.768;2023-03-05T12:19:34;12.80;48.30
38265;DHT22;24062;47.480;8.768;2023-03-05T12:22:04;12.90;47.40
38265;DHT22;24062;47.480;8.768;2023-03-05T12:24:35;13.10;48.00
38265;DHT22;24062;47.480;8.768;2023-03-05T12:27:14;13.00;45.90
38265;DHT22;24062;47.480;8.768;2023-03-05T12:29:45;12.90;46.10
38265;DHT22;24062;47.480;8.768;2023-03-05T12:35:35;12.60;44.10
38265;DHT22;24062;47.480;8.768;2023-03-05T12:41:33;12.50;45.70
38265;DHT22;24062;47.480;8.768;2023-03-05T12:44:18;12.20;43.70
38265;DHT22;24062;47.480;8.768;2023-03-05T12:49:50;11.30;43.80
38265;DHT22;24062;47.480;8.768;2023-03-05T12:52:25;11.00;43.90
38265;DHT22;24062;47.480;8.768;2023-03-05T12:55:17;10.70;43.70
38265;DHT22;24062;47.480;8.768;2023-03-05T12:57:51;10.60;44.80
38265;DHT22;24062;47.480;8.768;2023-03-05T13:00:24;10.70;45.10
38265;DHT22;24062;47.480;8.768;2023-03-05T13:02:54;10.80;45.00
38265;DHT22;24062;47.480;8.768;2023-03-05T13:05:26;10.90;45.00
38265;DHT22;24062;47.480;8.768;2023-03-05T13:08:09;11.20;45.10
38265;DHT22;24062;47.480;8.768;2023-03-05T13:10:36;11.50;44.30
38265;DHT22;24062;47.480;8.768;2023-03-05T13:13:05;11.70;45.00
38265;DHT22;24062;47.480;8.768;2023-03-05T13:15:32;12.30;46.20
38265;DHT22;24062;47.480;8.768;2023-03-05T13:18:00;13.00;46.10
38265;DHT22;24062;47.480;8.768;2023-03-05T13:20:31;13.70;45.20
38265;DHT22;24062;47.480;8.768;2023-03-05T13:23:20;14.30;45.90
38265;DHT22;24062;47.480;8.768;2023-03-05T13:26:10;14.70;42.60
38265;DHT22;24062;47.480;8.768;2023-03-05T13:28:41;14.60;43.00
38265;DHT22;24062;47.480;8.768;2023-03-05T13:31:13;14.80;42.10
38265;DHT22;24062;47.480;8.768;2023-03-05T13:33:48;14.70;40.40
38265;DHT22;24062;47.480;8.768;2023-03-05T13:36:18;14.20;39.90
38265;DHT22;24062;47.480;8.768;2023-03-05T13:38:47;14.00;40.60
38265;DHT22;24062;47.480;8.768;2023-03-05T13:41:19;14.30;40.60
38265;DHT22;24062;47.480;8.768;2023-03-05T13:43:49;14.30;39.80
38265;DHT22;24062;47.480;8.768;2023-03-05T13:46:29;14.10;39.40
38265;DHT22;24062;47.480;8.768;2023-03-05T13:48:58;14.10;40.30
38265;DHT22;24062;47.480;8.768;2023-03-05T13:51:44;14.20;40.40
38265;DHT22;24062;47.480;8.768;2023-03-05T13:54:13;14.70;42.10
38265;DHT22;24062;47.480;8.768;2023-03-05T13:56:49;15.50;41.70
38265;DHT22;24062;47.480;8.768;2023-03-05T13:59:18;16.10;41.10
38265;DHT22;24062;47.480;8.768;2023-03-05T14:01:46;16.40;39.80
38265;DHT22;24062;47.480;8.768;2023-03-05T14:04:20;16.70;40.30
38265;DHT22;24062;47.480;8.768;2023-03-05T14:06:49;16.90;40.10
38265;DHT22;24062;47.480;8.768;2023-03-05T14:09:20;16.90;38.60
38265;DHT22;24062;47.480;8.768;2023-03-05T14:11:52;16.40;38.20
38265;DHT22;24062;47.480;8.768;2023-03-05T14:14:22;16.10;38.40
38265;DHT22;24062;47.480;8.768;2023-03-05T14:16:49;15.80;38.10
38265;DHT22;24062;47.480;8.768;2023-03-05T14:19:34;15.50;38.40
38265;DHT22;24062;47.480;8.768;2023-03-05T14:22:01;15.30;38.10
38265;DHT22;24062;47.480;8.768;2023-03-05T14:24:29;15.20;38.40
38265;DHT22;24062;47.480;8.768;2023-03-05T14:26:57;15.00;37.30
38265;DHT22;24062;47.480;8.768;2023-03-05T14:29:27;14.60;37.10
38265;DHT22;24062;47.480;8.768;2023-03-05T14:31:56;14.30;37.30
38265;DHT22;24062;47.480;8.768;2023-03-05T14:34:27;14.00;36.80
38265;DHT22;24062;47.480;8.768;2023-03-05T14:36:57;13.40;36.50
38265;DHT22;24062;47.480;8.768;2023-03-05T14:39:31;12.80;36.60
38265;DHT22;24062;47.480;8.768;2023-03-05T14:42:27;12.90;37.70
38265;DHT22;24062;47.480;8.768;2023-03-05T14:44:58;14.60;38.60
38265;DHT22;24062;47.480;8.768;2023-03-05T14:47:26;14.80;37.70
38265;DHT22;24062;47.480;8.768;2023-03-05T14:49:54;15.90;38.70
38265;DHT22;24062;47.480;8.768;2023-03-05T14:52:22;16.90;37.90
38265;DHT22;24062;47.480;8.768;2023-03-05T14:54:50;18.90;38.30
38265;DHT22;24062;47.480;8.768;2023-03-05T14:57:21;20.50;37.50
38265;DHT22;24062;47.480;8.768;2023-03-05T14:59:48;20.40;35.90
38265;DHT22;24062;47.480;8.768;2023-03-05T15:02:19;20.00;34.50
38265;DHT22;24062;47.480;8.768;2023-03-05T15:04:46;19.20;34.90
38265;DHT22;24062;47.480;8.768;2023-03-05T15:07:17;21.10;38.60
38265;DHT22;24062;47.480;8.768;2023-03-05T15:09:44;22.00;34.20
38265;DHT22;24062;47.480;8.768;2023-03-05T15:12:14;22.50;33.40
38265;DHT22;24062;47.480;8.768;2023-03-05T15:14:41;23.30;34.60
38265;DHT22;24062;47.480;8.768;2023-03-05T15:17:14;24.10;34.00
38265;DHT22;24062;47.480;8.768;2023-03-05T15:19:43;22.60;30.70
38265;DHT22;24062;47.480;8.768;2023-03-05T15:22:12;20.00;30.00
38265;DHT22;24062;47.480;8.768;2023-03-05T15:24:39;18.10;29.90
38265;DHT22;24062;47.480;8.768;2023-03-05T15:27:06;16.30;30.20
38265;DHT22;24062;47.480;8.768;2023-03-05T15:29:33;15.20;31.20
38265;DHT22;24062;47.480;8.768;2023-03-05T15:32:01;14.60;31.70
38265;DHT22;24062;47.480;8.768;2023-03-05T15:34:29;13.90;31.50
38265;DHT22;24062;47.480;8.768;2023-03-05T15:36:57;13.20;31.80
38265;DHT22;24062;47.480;8.768;2023-03-05T15:39:24;13.10;32.80
38265;DHT22;24062;47.480;8.768;2023-03-05T15:41:52;13.00;32.70
38265;DHT22;24062;47.480;8.768;2023-03-05T15:44:19;13.40;33.60
38265;DHT22;24062;47.480;8.768;2023-03-05T15:46:46;15.50;35.40
38265;DHT22;24062;47.480;8.768;2023-03-05T15:49:13;15.60;32.80
38265;DHT22;24062;47.480;8.768;2023-03-05T15:51:40;16.60;34.30
38265;DHT22;24062;47.480;8.768;2023-03-05T15:54:09;16.30;32.70
38265;DHT22;24062;47.480;8.768;2023-03-05T15:56:35;14.90;31.60
38265;DHT22;24062;47.480;8.768;2023-03-05T15:59:03;13.60;32.00
38265;DHT22;24062;47.480;8.768;2023-03-05T16:01:30;12.70;32.50
38265;DHT22;24062;47.480;8.768;2023-03-05T16:03:57;12.10;33.00
38265;DHT22;24062;47.480;8.768;2023-03-05T16:06:24;11.70;33.20
38265;DHT22;24062;47.480;8.768;2023-03-05T16:08:56;11.40;33.30